createdAt,value
2022-10-29T00:00:31.170Z,0.00
2022-10-29T00:01:00.267Z,0.00
2022-10-29T00:01:30.619Z,0.00
2022-10-29T00:02:01.726Z,0.00
2022-10-29T00:02:32.514Z,0.00
2022-10-29T00:03:03.540Z,0.00
2022-10-29T00:03:34.453Z,0.00
2022-10-29T00:04:05.606Z,0.00
2022-10-29T00:04:36.437Z,0.00
2022-10-29T00:05:07.397Z,0.00
2022-10-29T00:05:38.534Z,0.00
2022-10-29T00:06:10.485Z,0.00
2022-10-29T00:06:40.592Z,0.00
2022-10-29T00:07:11.574Z,0.00
2022-10-29T00:07:42.368Z,0.00
2022-10-29T00:08:13.673Z,0.00
2022-10-29T00:08:44.628Z,0.00
2022-10-29T00:09:15.476Z,0.00
2022-10-29T00:09:46.247Z,0.00
2022-10-29T00:10:17.481Z,0.00
2022-10-29T00:10:48.421Z,0.00
2022-10-29T00:11:20.557Z,0.00
2022-10-29T00:11:50.393Z,0.00
2022-10-29T00:12:21.350Z,0.00
2022-10-29T00:12:52.300Z,0.00
2022-10-29T00:13:23.547Z,0.00
2022-10-29T00:13:54.480Z,0.00
2022-10-29T00:14:25.458Z,0.00
2022-10-29T00:14:56.601Z,0.00
2022-10-29T00:15:30.176Z,0.00
2022-10-29T00:15:58.565Z,0.00
2022-10-29T00:16:30.514Z,0.00
2022-10-29T00:17:00.334Z,0.00
2022-10-29T00:17:31.173Z,0.00
2022-10-29T00:18:02.451Z,0.00
2022-10-29T00:18:33.444Z,0.00
2022-10-29T00:19:04.327Z,0.00
2022-10-29T00:19:35.428Z,0.00
2022-10-29T00:20:37.584Z,0.00
2022-10-29T00:21:08.577Z,0.00
2022-10-29T00:21:40.383Z,0.00
2022-10-29T00:22:10.497Z,0.00
2022-10-29T00:22:41.658Z,0.00
2022-10-29T00:23:12.443Z,0.00
2022-10-29T00:23:43.362Z,0.00
2022-10-29T00:24:14.528Z,0.00
2022-10-29T00:24:45.534Z,0.00
2022-10-29T00:25:16.408Z,0.00
2022-10-29T00:25:47.476Z,0.00
2022-10-29T00:26:18.334Z,0.00
2022-10-29T00:26:50.369Z,0.00
2022-10-29T00:27:20.465Z,0.00
2022-10-29T00:27:51.402Z,0.00
2022-10-29T00:28:22.329Z,0.00
2022-10-29T00:28:53.555Z,0.00
2022-10-29T00:29:24.461Z,0.00
2022-10-29T00:29:55.517Z,0.00
2022-10-29T00:30:29.196Z,0.00
2022-10-29T00:30:57.400Z,0.00
2022-10-29T00:31:28.621Z,0.00
2022-10-29T00:32:00.565Z,0.00
2022-10-29T00:32:30.507Z,0.00
2022-10-29T00:33:01.188Z,0.00
2022-10-29T00:33:32.420Z,0.00
2022-10-29T00:34:03.402Z,0.00
2022-10-29T00:34:34.629Z,0.00
2022-10-29T00:35:05.402Z,0.00
2022-10-29T00:35:36.328Z,0.00
2022-10-29T00:36:07.248Z,0.00
2022-10-29T00:36:38.605Z,0.00
2022-10-29T00:37:10.661Z,0.00
2022-10-29T00:37:40.467Z,0.00
2022-10-29T00:38:11.557Z,0.00
2022-10-29T00:38:42.282Z,0.00
2022-10-29T00:39:13.542Z,0.00
2022-10-29T00:39:44.404Z,0.00
2022-10-29T00:40:16.705Z,0.00
2022-10-29T00:40:56.389Z,0.00
2022-10-29T00:41:17.505Z,0.00
2022-10-29T00:41:48.385Z,0.00
2022-10-29T00:42:22.856Z,0.00
2022-10-29T00:42:50.636Z,0.00
2022-10-29T00:43:21.652Z,0.00
2022-10-29T00:43:52.858Z,0.00
2022-10-29T00:44:26.664Z,0.00
2022-10-29T00:44:55.991Z,0.00
2022-10-29T00:45:28.299Z,0.00
2022-10-29T00:45:56.473Z,0.00
2022-10-29T00:46:27.659Z,0.00
2022-10-29T00:46:58.507Z,0.00
2022-10-29T00:47:30.720Z,0.00
2022-10-29T00:48:00.610Z,0.00
2022-10-29T00:48:31.570Z,0.00
2022-10-29T00:49:02.901Z,0.00
2022-10-29T00:58:36.403Z,0.00
2022-10-29T00:58:46.372Z,0.00
2022-10-29T00:59:20.228Z,0.00
2022-10-29T00:59:59.459Z,0.00
2022-10-29T01:00:30.510Z,0.00
2022-10-29T01:00:56.052Z,0.00
2022-10-29T01:01:26.428Z,0.00
2022-10-29T01:01:57.506Z,0.00
2022-10-29T01:02:28.548Z,0.00
2022-10-29T01:03:00.592Z,0.00
2022-10-29T01:03:30.550Z,0.00
2022-10-29T01:04:01.736Z,0.00
2022-10-29T01:04:32.631Z,0.00
2022-10-29T01:05:03.525Z,0.00
2022-10-29T01:05:34.550Z,0.00
2022-10-29T01:06:05.646Z,0.00
2022-10-29T01:06:36.435Z,0.00
2022-10-29T01:07:07.352Z,0.00
2022-10-29T01:07:38.495Z,0.00
2022-10-29T01:08:10.356Z,0.00
2022-10-29T01:08:40.391Z,0.00
2022-10-29T01:09:11.687Z,0.00
2022-10-29T01:09:42.326Z,0.00
2022-10-29T01:10:13.550Z,0.00
2022-10-29T01:10:44.610Z,0.00
2022-10-29T01:11:15.476Z,0.00
2022-10-29T01:11:46.436Z,0.00
2022-10-29T01:12:17.082Z,0.00
2022-10-29T01:12:48.648Z,0.00
2022-10-29T01:13:20.556Z,0.00
2022-10-29T01:13:50.456Z,0.00
2022-10-29T01:14:21.635Z,0.00
2022-10-29T01:14:52.512Z,0.00
2022-10-29T01:15:26.441Z,0.00
2022-10-29T01:15:54.524Z,0.00
2022-10-29T01:16:25.278Z,0.00
2022-10-29T01:16:56.533Z,0.00
2022-10-29T01:17:27.436Z,0.00
2022-10-29T01:17:58.927Z,0.00
2022-10-29T01:18:30.471Z,0.00
2022-10-29T01:19:00.601Z,0.00
2022-10-29T01:19:31.568Z,0.00
2022-10-29T01:20:02.595Z,0.00
2022-10-29T01:20:33.314Z,0.00
2022-10-29T01:21:04.525Z,0.00
2022-10-29T01:21:35.438Z,0.00
2022-10-29T01:22:06.663Z,0.00
2022-10-29T01:22:37.578Z,0.00
2022-10-29T01:23:08.628Z,0.00
2022-10-29T01:23:40.205Z,0.00
2022-10-29T01:24:10.346Z,0.00
2022-10-29T01:24:41.787Z,0.00
2022-10-29T01:25:12.464Z,0.00
2022-10-29T01:25:43.470Z,0.00
2022-10-29T01:26:14.445Z,0.00
2022-10-29T01:26:45.331Z,0.00
2022-10-29T01:27:16.312Z,0.00
2022-10-29T01:27:47.507Z,0.00
2022-10-29T01:28:18.643Z,0.00
2022-10-29T01:28:50.669Z,0.00
2022-10-29T01:29:20.441Z,0.00
2022-10-29T01:29:51.371Z,0.00
2022-10-29T01:30:25.205Z,0.00
2022-10-29T01:30:53.247Z,0.00
2022-10-29T01:31:24.353Z,0.00
2022-10-29T01:31:55.255Z,0.00
2022-10-29T01:32:26.601Z,0.00
2022-10-29T01:32:57.544Z,0.00
2022-10-29T01:33:28.599Z,0.00
2022-10-29T01:34:00.603Z,0.00
2022-10-29T01:34:30.583Z,0.00
2022-10-29T01:35:01.508Z,0.00
2022-10-29T01:35:32.782Z,0.00
2022-10-29T01:36:03.434Z,0.00
2022-10-29T01:36:34.518Z,0.00
2022-10-29T01:37:05.482Z,0.00
2022-10-29T01:37:36.583Z,0.00
2022-10-29T01:38:07.574Z,0.00
2022-10-29T01:38:38.483Z,0.00
2022-10-29T01:39:10.359Z,0.00
2022-10-29T01:39:40.265Z,0.00
2022-10-29T01:40:11.623Z,0.00
2022-10-29T01:40:42.446Z,0.00
2022-10-29T01:41:13.559Z,0.00
2022-10-29T01:41:44.509Z,0.00
2022-10-29T01:42:15.459Z,0.00
2022-10-29T01:42:46.508Z,0.00
2022-10-29T01:43:17.500Z,0.00
2022-10-29T01:43:48.463Z,0.00
2022-10-29T01:44:20.605Z,0.00
2022-10-29T01:44:50.564Z,0.00
2022-10-29T01:45:24.256Z,0.00
2022-10-29T01:45:52.530Z,0.00
2022-10-29T01:46:23.523Z,0.00
2022-10-29T01:46:54.524Z,0.00
2022-10-29T01:47:25.304Z,0.00
2022-10-29T01:47:56.875Z,0.00
2022-10-29T01:48:30.434Z,0.00
2022-10-29T01:48:58.648Z,0.00
2022-10-29T01:49:30.643Z,0.00
2022-10-29T01:50:00.526Z,0.00
2022-10-29T01:50:31.581Z,0.00
2022-10-29T01:51:02.504Z,0.00
2022-10-29T01:51:33.410Z,0.00
2022-10-29T01:52:04.454Z,0.00
2022-10-29T01:52:35.366Z,0.00
2022-10-29T01:53:06.635Z,0.00
2022-10-29T01:53:37.606Z,0.00
2022-10-29T01:54:08.552Z,0.00
2022-10-29T01:54:40.229Z,0.00
2022-10-29T01:55:10.308Z,0.00
2022-10-29T01:55:41.704Z,0.00
2022-10-29T01:56:12.607Z,0.00
2022-10-29T01:56:43.486Z,0.00
2022-10-29T01:57:14.454Z,0.00
2022-10-29T01:57:45.348Z,0.00
2022-10-29T01:58:47.663Z,0.00
2022-10-29T01:59:29.005Z,0.00
2022-10-29T01:59:55.878Z,0.00
2022-10-29T02:00:23.255Z,0.00
2022-10-29T02:00:51.577Z,0.00
2022-10-29T02:01:22.528Z,0.00
2022-10-29T02:01:53.554Z,0.00
2022-10-29T02:02:24.464Z,0.00
2022-10-29T02:02:55.681Z,0.00
2022-10-29T02:03:26.373Z,0.00
2022-10-29T02:03:57.462Z,0.00
2022-10-29T02:04:28.520Z,0.00
2022-10-29T02:05:00.451Z,0.00
2022-10-29T02:05:30.555Z,0.00
2022-10-29T02:06:01.495Z,0.00
2022-10-29T02:06:32.542Z,0.00
2022-10-29T02:07:03.507Z,0.00
2022-10-29T02:07:34.658Z,0.00
2022-10-29T02:08:05.407Z,0.00
2022-10-29T02:08:36.531Z,0.00
2022-10-29T02:09:07.370Z,0.00
2022-10-29T02:09:38.544Z,0.00
2022-10-29T02:10:10.363Z,0.00
2022-10-29T02:10:40.332Z,0.00
2022-10-29T02:11:11.426Z,0.00
2022-10-29T02:11:42.652Z,0.00
2022-10-29T02:12:13.463Z,0.00
2022-10-29T02:12:44.356Z,0.00
2022-10-29T02:13:15.287Z,0.00
2022-10-29T02:13:46.362Z,0.00
2022-10-29T02:14:17.307Z,0.00
2022-10-29T02:14:48.267Z,0.00
2022-10-29T02:15:23.312Z,0.00
2022-10-29T02:15:50.509Z,0.00
2022-10-29T02:16:21.567Z,0.00
2022-10-29T02:16:52.294Z,0.00
2022-10-29T02:17:23.558Z,0.00
2022-10-29T02:17:54.581Z,0.00
2022-10-29T02:18:25.311Z,0.00
2022-10-29T02:18:56.680Z,0.00
2022-10-29T02:19:27.419Z,0.00
2022-10-29T02:19:58.563Z,0.00
2022-10-29T02:20:30.501Z,0.00
2022-10-29T02:21:00.553Z,0.00
2022-10-29T02:21:31.474Z,0.00
2022-10-29T02:22:02.537Z,0.00
2022-10-29T02:22:33.550Z,0.00
2022-10-29T02:23:04.550Z,0.00
2022-10-29T02:23:35.451Z,0.00
2022-10-29T02:24:06.538Z,0.00
2022-10-29T02:24:37.350Z,0.00
2022-10-29T02:25:08.819Z,0.00
2022-10-29T02:25:40.495Z,0.00
2022-10-29T02:26:10.322Z,0.00
2022-10-29T02:26:41.612Z,0.00
2022-10-29T02:27:12.430Z,0.00
2022-10-29T02:27:43.519Z,0.00
2022-10-29T02:28:14.477Z,0.00
2022-10-29T02:28:45.298Z,0.00
2022-10-29T02:29:16.487Z,0.00
2022-10-29T02:29:47.582Z,0.00
2022-10-29T02:30:21.329Z,0.00
2022-10-29T02:30:50.442Z,0.00
2022-10-29T02:31:20.548Z,0.00
2022-10-29T02:31:51.587Z,0.00
2022-10-29T02:32:22.488Z,0.00
2022-10-29T02:32:53.404Z,0.00
2022-10-29T02:33:24.438Z,0.00
2022-10-29T02:33:55.261Z,0.00
2022-10-29T02:34:26.669Z,0.00
2022-10-29T02:34:57.511Z,0.00
2022-10-29T02:35:28.710Z,0.00
2022-10-29T02:36:00.445Z,0.00
2022-10-29T02:36:30.550Z,0.00
2022-10-29T02:37:01.569Z,0.00
2022-10-29T02:37:32.380Z,0.00
2022-10-29T02:38:03.554Z,0.00
2022-10-29T02:38:34.407Z,0.00
2022-10-29T02:39:05.434Z,0.00
2022-10-29T02:39:36.615Z,0.00
2022-10-29T02:40:07.317Z,0.00
2022-10-29T02:40:38.153Z,0.00
2022-10-29T02:41:10.454Z,0.00
2022-10-29T02:41:40.381Z,0.00
2022-10-29T02:42:11.271Z,0.00
2022-10-29T02:42:42.539Z,0.00
2022-10-29T02:43:13.536Z,0.00
2022-10-29T02:43:44.606Z,0.00
2022-10-29T02:44:15.516Z,0.00
2022-10-29T02:44:46.478Z,0.00
2022-10-29T02:45:20.387Z,0.00
2022-10-29T02:45:48.564Z,0.00
2022-10-29T02:46:20.481Z,0.00
2022-10-29T02:46:50.499Z,0.00
2022-10-29T02:47:21.363Z,0.00
2022-10-29T02:47:52.370Z,0.00
2022-10-29T02:48:23.602Z,0.00
2022-10-29T02:48:54.477Z,0.00
2022-10-29T02:49:25.290Z,0.00
2022-10-29T02:49:56.450Z,0.00
2022-10-29T02:50:27.580Z,0.00
2022-10-29T02:50:58.617Z,0.00
2022-10-29T02:51:30.288Z,0.00
2022-10-29T02:52:00.401Z,0.00
2022-10-29T02:52:31.317Z,0.00
2022-10-29T02:53:02.355Z,0.00
2022-10-29T02:53:33.326Z,0.00
2022-10-29T02:54:04.217Z,0.00
2022-10-29T02:54:35.312Z,0.00
2022-10-29T02:55:06.614Z,0.00
2022-10-29T02:55:37.353Z,0.00
2022-10-29T02:56:08.593Z,0.00
2022-10-29T02:56:40.431Z,0.00
2022-10-29T02:57:10.409Z,0.00
2022-10-29T02:57:41.549Z,0.00
2022-10-29T02:58:12.449Z,0.00
2022-10-29T02:58:43.512Z,0.00
2022-10-29T02:59:14.633Z,0.00
2022-10-29T02:59:45.530Z,0.00
2022-10-29T03:00:19.351Z,0.00
2022-10-29T03:00:47.559Z,0.00
2022-10-29T03:01:18.765Z,0.00
2022-10-29T03:01:50.863Z,0.00
2022-10-29T03:02:20.741Z,0.00
2022-10-29T03:05:26.534Z,0.00
2022-10-29T03:05:57.483Z,0.00
2022-10-29T03:06:28.592Z,0.00
2022-10-29T03:07:00.534Z,0.00
2022-10-29T03:07:30.558Z,0.00
2022-10-29T03:08:01.473Z,0.00
2022-10-29T03:08:32.616Z,0.00
2022-10-29T03:09:03.536Z,0.00
2022-10-29T03:09:34.474Z,0.00
2022-10-29T03:10:05.557Z,0.00
2022-10-29T03:10:36.654Z,0.00
2022-10-29T03:11:07.568Z,0.00
2022-10-29T03:11:38.268Z,0.00
2022-10-29T03:12:10.340Z,0.00
2022-10-29T03:12:40.361Z,0.00
2022-10-29T03:13:11.604Z,0.00
2022-10-29T03:13:42.282Z,0.00
2022-10-29T03:14:13.513Z,0.00
2022-10-29T03:14:44.438Z,0.00
2022-10-29T03:15:18.289Z,0.00
2022-10-29T03:15:46.629Z,0.00
2022-10-29T03:16:17.434Z,0.00
2022-10-29T03:16:48.550Z,0.00
2022-10-29T03:17:20.389Z,0.00
2022-10-29T03:17:50.644Z,0.00
2022-10-29T03:18:21.642Z,0.00
2022-10-29T03:18:52.498Z,0.00
2022-10-29T03:19:23.401Z,0.00
2022-10-29T03:19:54.693Z,0.00
2022-10-29T03:20:25.393Z,0.00
2022-10-29T03:20:56.443Z,0.00
2022-10-29T03:21:27.406Z,0.00
2022-10-29T03:21:58.607Z,0.00
2022-10-29T03:22:30.535Z,0.00
2022-10-29T03:23:00.545Z,0.00
2022-10-29T03:23:31.485Z,0.00
2022-10-29T03:24:02.396Z,0.00
2022-10-29T03:24:33.479Z,0.00
2022-10-29T03:25:04.427Z,0.00
2022-10-29T03:25:35.398Z,0.00
2022-10-29T03:26:06.536Z,0.00
2022-10-29T03:26:37.451Z,0.00
2022-10-29T03:27:08.635Z,0.00
2022-10-29T03:27:40.386Z,0.00
2022-10-29T03:28:10.362Z,0.00
2022-10-29T03:28:41.600Z,0.00
2022-10-29T03:29:12.510Z,0.00
2022-10-29T03:29:44.180Z,0.00
2022-10-29T03:30:17.409Z,0.00
2022-10-29T03:30:45.410Z,0.00
2022-10-29T03:31:16.568Z,0.00
2022-10-29T03:31:47.636Z,0.00
2022-10-29T03:32:18.586Z,0.00
2022-10-29T03:32:50.526Z,0.00
2022-10-29T03:33:20.627Z,0.00
2022-10-29T03:33:51.649Z,0.00
2022-10-29T03:34:22.546Z,0.00
2022-10-29T03:34:56.111Z,0.00
2022-10-29T03:35:24.457Z,0.00
2022-10-29T03:35:55.434Z,0.00
2022-10-29T03:36:26.620Z,0.00
2022-10-29T03:36:57.640Z,0.00
2022-10-29T03:37:28.410Z,0.00
2022-10-29T03:38:00.485Z,0.00
2022-10-29T03:38:30.440Z,0.00
2022-10-29T03:39:01.566Z,0.00
2022-10-29T03:39:32.357Z,0.00
2022-10-29T03:40:03.655Z,0.00
2022-10-29T03:40:34.398Z,0.00
2022-10-29T03:41:05.385Z,0.00
2022-10-29T03:41:36.418Z,0.00
2022-10-29T03:42:07.538Z,0.00
2022-10-29T03:42:38.326Z,0.00
2022-10-29T03:43:10.276Z,0.00
2022-10-29T03:43:40.352Z,0.00
2022-10-29T03:44:11.402Z,0.00
2022-10-29T03:44:42.599Z,0.00
2022-10-29T03:45:16.300Z,0.00
2022-10-29T03:45:44.450Z,0.00
2022-10-29T03:46:15.454Z,0.00
2022-10-29T03:46:46.388Z,0.00
2022-10-29T03:47:17.528Z,0.00
2022-10-29T03:47:48.617Z,0.00
2022-10-29T03:48:20.416Z,0.00
2022-10-29T03:48:50.396Z,0.00
2022-10-29T03:49:21.497Z,0.00
2022-10-29T03:49:52.557Z,0.00
2022-10-29T03:50:23.464Z,0.00
2022-10-29T03:50:54.254Z,0.00
2022-10-29T03:51:25.266Z,0.00
2022-10-29T03:51:56.553Z,0.00
2022-10-29T03:52:27.577Z,0.00
2022-10-29T03:52:58.311Z,0.00
2022-10-29T03:53:30.585Z,0.00
2022-10-29T03:54:00.399Z,0.00
2022-10-29T03:54:31.637Z,0.00
2022-10-29T03:55:02.654Z,0.00
2022-10-29T03:55:33.343Z,0.00
2022-10-29T03:56:04.443Z,0.00
2022-10-29T03:56:35.470Z,0.00
2022-10-29T03:57:06.518Z,0.00
2022-10-29T03:57:37.453Z,0.00
2022-10-29T03:58:08.557Z,0.00
2022-10-29T03:58:40.259Z,0.00
2022-10-29T03:59:41.776Z,0.00
2022-10-29T04:00:15.234Z,0.00
2022-10-29T04:00:43.324Z,0.00
2022-10-29T04:01:14.635Z,0.00
2022-10-29T04:01:45.564Z,0.00
2022-10-29T04:02:16.473Z,0.00
2022-10-29T04:02:47.737Z,0.00
2022-10-29T04:03:18.661Z,0.00
2022-10-29T04:03:50.612Z,0.00
2022-10-29T04:04:20.520Z,0.00
2022-10-29T04:04:51.555Z,0.00
2022-10-29T04:05:22.549Z,0.00
2022-10-29T04:05:53.517Z,0.00
2022-10-29T04:06:24.422Z,0.00
2022-10-29T04:06:55.195Z,0.00
2022-10-29T04:07:26.416Z,0.00
2022-10-29T04:07:57.497Z,0.00
2022-10-29T04:08:28.321Z,0.00
2022-10-29T04:09:00.581Z,0.00
2022-10-29T04:09:30.551Z,0.00
2022-10-29T04:10:01.356Z,0.00
2022-10-29T04:10:32.665Z,0.00
2022-10-29T04:11:03.550Z,0.00
2022-10-29T04:11:34.444Z,0.00
2022-10-29T04:12:05.389Z,0.00
2022-10-29T04:12:36.532Z,0.00
2022-10-29T04:13:07.621Z,0.00
2022-10-29T04:13:38.369Z,0.00
2022-10-29T04:14:10.256Z,0.00
2022-10-29T04:14:44.578Z,0.00
2022-10-29T04:15:14.223Z,0.00
2022-10-29T04:15:42.490Z,0.00
2022-10-29T04:16:13.293Z,0.00
2022-10-29T04:16:44.450Z,0.00
2022-10-29T04:17:15.403Z,0.00
2022-10-29T04:17:46.365Z,0.00
2022-10-29T04:18:17.320Z,0.00
2022-10-29T04:18:48.616Z,0.00
2022-10-29T04:19:20.431Z,0.00
2022-10-29T04:19:50.620Z,0.00
2022-10-29T04:21:05.649Z,0.00
2022-10-29T04:27:07.767Z,0.00
2022-10-29T04:31:12.592Z,0.00
2022-10-29T04:31:43.222Z,0.00
2022-10-29T04:32:14.588Z,0.00
2022-10-29T04:32:45.438Z,0.00
2022-10-29T04:33:16.410Z,0.00
2022-10-29T04:33:47.499Z,0.00
2022-10-29T04:34:18.601Z,0.00
2022-10-29T04:34:50.631Z,0.00
2022-10-29T04:35:20.629Z,0.00
2022-10-29T04:35:51.411Z,0.00
2022-10-29T04:36:22.558Z,0.00
2022-10-29T04:36:53.456Z,0.00
2022-10-29T04:37:24.425Z,0.00
2022-10-29T04:37:55.271Z,0.00
2022-10-29T04:38:26.405Z,0.00
2022-10-29T04:38:57.482Z,0.00
2022-10-29T04:39:28.237Z,0.00
2022-10-29T04:40:00.670Z,0.00
2022-10-29T04:40:30.580Z,0.00
2022-10-29T04:41:01.371Z,0.00
2022-10-29T04:41:32.516Z,0.00
2022-10-29T04:42:03.705Z,0.00
2022-10-29T04:42:34.554Z,0.00
2022-10-29T04:43:05.472Z,0.00
2022-10-29T04:43:36.443Z,0.00
2022-10-29T04:44:07.519Z,0.00
2022-10-29T04:44:38.532Z,0.00
2022-10-29T04:45:13.147Z,0.00
2022-10-29T04:45:40.548Z,0.00
2022-10-29T04:46:11.331Z,0.00
2022-10-29T04:46:42.535Z,0.00
2022-10-29T04:47:13.352Z,0.00
2022-10-29T04:47:44.273Z,0.00
2022-10-29T04:48:15.579Z,0.00
2022-10-29T04:48:46.478Z,0.00
2022-10-29T04:49:17.785Z,0.00
2022-10-29T04:49:48.660Z,0.00
2022-10-29T04:50:20.508Z,0.00
2022-10-29T04:50:50.546Z,0.00
2022-10-29T04:51:21.519Z,0.00
2022-10-29T04:51:52.494Z,0.00
2022-10-29T04:52:23.284Z,0.00
2022-10-29T04:52:54.361Z,0.00
2022-10-29T04:53:25.239Z,0.00
2022-10-29T04:53:56.388Z,0.00
2022-10-29T04:54:27.502Z,0.00
2022-10-29T04:54:58.267Z,0.00
2022-10-29T04:55:30.628Z,0.00
2022-10-29T04:56:00.652Z,0.00
2022-10-29T04:56:31.439Z,0.00
2022-10-29T04:57:02.427Z,0.00
2022-10-29T04:57:33.569Z,0.00
2022-10-29T04:58:04.553Z,0.00
2022-10-29T04:58:35.540Z,0.00
2022-10-29T04:59:06.542Z,0.00
2022-10-29T04:59:37.380Z,0.00
2022-10-29T05:00:16.194Z,0.00
2022-10-29T05:00:40.394Z,0.00
2022-10-29T05:01:10.550Z,0.00
2022-10-29T05:01:41.265Z,0.00
2022-10-29T05:02:12.517Z,0.00
2022-10-29T05:02:43.427Z,0.00
2022-10-29T05:03:14.542Z,0.00
2022-10-29T05:03:45.478Z,0.00
2022-10-29T05:04:16.570Z,0.00
2022-10-29T05:04:47.507Z,0.00
2022-10-29T05:05:18.594Z,0.00
2022-10-29T05:05:50.645Z,0.00
2022-10-29T05:06:20.627Z,0.00
2022-10-29T05:06:51.442Z,0.00
2022-10-29T05:07:22.356Z,0.00
2022-10-29T05:07:53.415Z,0.00
2022-10-29T05:08:24.432Z,0.00
2022-10-29T05:08:55.338Z,0.00
2022-10-29T05:09:26.157Z,0.00
2022-10-29T05:09:57.582Z,0.00
2022-10-29T05:10:28.384Z,0.00
2022-10-29T05:11:00.360Z,0.00
2022-10-29T05:11:30.472Z,0.00
2022-10-29T05:12:01.531Z,0.00
2022-10-29T05:12:32.440Z,0.00
2022-10-29T05:13:03.467Z,0.00
2022-10-29T05:13:34.263Z,0.00
2022-10-29T05:14:05.576Z,0.00
2022-10-29T05:14:36.600Z,0.00
2022-10-29T05:15:10.443Z,0.00
2022-10-29T05:15:38.392Z,0.00
2022-10-29T05:16:10.409Z,0.00
2022-10-29T05:16:40.258Z,0.00
2022-10-29T05:17:11.315Z,0.00
2022-10-29T05:17:42.534Z,0.00
2022-10-29T05:18:13.362Z,0.00
2022-10-29T05:18:44.505Z,0.00
2022-10-29T05:19:15.558Z,0.00
2022-10-29T05:19:46.567Z,0.00
2022-10-29T05:20:17.436Z,0.00
2022-10-29T05:20:48.544Z,0.00
2022-10-29T05:21:20.638Z,0.00
2022-10-29T05:21:50.712Z,0.00
2022-10-29T05:22:21.587Z,0.00
2022-10-29T05:22:52.387Z,0.00
2022-10-29T05:23:23.436Z,0.00
2022-10-29T05:23:54.549Z,0.00
2022-10-29T05:24:25.374Z,0.00
2022-10-29T05:24:56.295Z,0.00
2022-10-29T05:25:27.516Z,0.00
2022-10-29T05:25:58.393Z,0.00
2022-10-29T05:26:30.435Z,0.00
2022-10-29T05:27:00.557Z,0.00
2022-10-29T05:27:31.442Z,0.00
2022-10-29T05:28:02.435Z,0.00
2022-10-29T05:28:33.511Z,0.00
2022-10-29T05:29:04.652Z,0.00
2022-10-29T05:29:35.295Z,0.00
2022-10-29T05:30:09.370Z,0.00
2022-10-29T05:30:37.558Z,0.00
2022-10-29T05:31:08.600Z,0.00
2022-10-29T05:31:40.368Z,0.00
2022-10-29T05:32:10.328Z,0.00
2022-10-29T05:32:41.340Z,0.00
2022-10-29T05:33:12.611Z,0.00
2022-10-29T05:33:43.534Z,0.00
2022-10-29T05:34:14.414Z,0.00
2022-10-29T05:34:45.401Z,0.00
2022-10-29T05:35:17.082Z,0.00
2022-10-29T05:35:47.494Z,0.00
2022-10-29T05:36:18.682Z,0.00
2022-10-29T05:36:50.603Z,0.00
2022-10-29T05:37:20.722Z,0.00
2022-10-29T05:37:51.593Z,0.00
2022-10-29T05:38:22.559Z,0.00
2022-10-29T05:38:53.376Z,0.00
2022-10-29T05:39:24.551Z,0.00
2022-10-29T05:39:55.516Z,0.00
2022-10-29T05:40:26.295Z,0.00
2022-10-29T05:40:57.315Z,0.00
2022-10-29T05:41:28.430Z,0.00
2022-10-29T05:42:00.443Z,0.00
2022-10-29T05:42:30.653Z,0.00
2022-10-29T05:43:01.786Z,0.00
2022-10-29T05:43:32.515Z,0.00
2022-10-29T05:44:03.662Z,0.00
2022-10-29T05:44:34.544Z,0.00
2022-10-29T05:45:08.238Z,0.00
2022-10-29T05:45:36.594Z,0.00
2022-10-29T05:46:07.647Z,0.00
2022-10-29T05:46:38.351Z,0.00
2022-10-29T05:47:10.428Z,0.00
2022-10-29T05:47:40.357Z,0.00
2022-10-29T05:48:42.688Z,0.00
2022-10-29T05:49:13.408Z,0.00
2022-10-29T05:49:44.475Z,0.00
2022-10-29T05:50:15.589Z,0.00
2022-10-29T05:50:46.452Z,0.00
2022-10-29T05:51:17.512Z,0.00
2022-10-29T05:51:48.640Z,0.00
2022-10-29T05:52:20.531Z,0.00
2022-10-29T05:52:50.670Z,0.00
2022-10-29T05:53:21.569Z,0.00
2022-10-29T05:53:52.605Z,0.00
2022-10-29T05:54:23.380Z,0.00
2022-10-29T05:54:54.579Z,0.00
2022-10-29T05:55:25.399Z,0.00
2022-10-29T05:55:56.280Z,0.00
2022-10-29T05:56:27.576Z,0.00
2022-10-29T05:56:58.420Z,0.00
2022-10-29T05:57:30.663Z,0.00
2022-10-29T05:58:00.745Z,0.36
2022-10-29T05:58:31.563Z,0.00
2022-10-29T05:59:02.538Z,0.00
2022-10-29T05:59:33.964Z,0.00
2022-10-29T06:00:07.586Z,0.85
2022-10-29T06:00:35.417Z,0.00
2022-10-29T06:01:06.578Z,0.36
2022-10-29T06:01:37.585Z,0.36
2022-10-29T06:02:09.093Z,0.85
2022-10-29T06:02:40.722Z,0.85
2022-10-29T06:03:10.663Z,0.85
2022-10-29T06:03:41.553Z,1.71
2022-10-29T06:04:12.885Z,1.71
2022-10-29T06:04:43.708Z,1.22
2022-10-29T06:05:14.725Z,1.71
2022-10-29T06:05:45.504Z,1.22
2022-10-29T06:06:16.569Z,2.57
2022-10-29T06:06:47.713Z,2.57
2022-10-29T06:07:18.683Z,1.71
2022-10-29T06:07:50.654Z,2.08
2022-10-29T06:08:20.524Z,2.57
2022-10-29T06:08:51.560Z,2.94
2022-10-29T06:09:22.696Z,2.94
2022-10-29T06:09:53.427Z,2.94
2022-10-29T06:10:24.431Z,3.43
2022-10-29T06:10:55.597Z,3.79
2022-10-29T06:11:26.582Z,3.43
2022-10-29T06:11:57.844Z,4.77
2022-10-29T06:12:31.182Z,4.77
2022-10-29T06:13:00.872Z,5.14
2022-10-29T06:13:30.805Z,5.63
2022-10-29T06:14:01.760Z,5.99
2022-10-29T06:14:32.700Z,5.99
2022-10-29T06:15:06.411Z,5.99
2022-10-29T06:15:34.876Z,6.85
2022-10-29T06:16:05.641Z,7.70
2022-10-29T06:16:36.895Z,7.34
2022-10-29T06:17:07.804Z,7.70
2022-10-29T06:17:38.733Z,8.19
2022-10-29T06:18:10.686Z,7.70
2022-10-29T06:18:40.747Z,8.56
2022-10-29T06:19:11.519Z,9.05
2022-10-29T06:19:42.825Z,9.05
2022-10-29T06:20:13.619Z,9.91
2022-10-29T06:20:44.851Z,9.91
2022-10-29T06:21:15.827Z,10.39
2022-10-29T06:21:46.675Z,10.39
2022-10-29T06:22:17.812Z,11.25
2022-10-29T06:22:48.887Z,11.25
2022-10-29T06:23:20.577Z,12.11
2022-10-29T06:23:50.633Z,12.97
2022-10-29T06:24:21.964Z,12.48
2022-10-29T06:24:52.734Z,12.97
2022-10-29T06:25:23.951Z,12.97
2022-10-29T06:25:54.927Z,13.33
2022-10-29T06:26:25.655Z,13.82
2022-10-29T06:26:56.448Z,15.53
2022-10-29T06:27:27.954Z,14.68
2022-10-29T06:27:58.667Z,15.17
2022-10-29T06:28:33.634Z,15.53
2022-10-29T06:29:00.752Z,16.39
2022-10-29T06:29:31.658Z,16.88
2022-10-29T06:30:05.434Z,16.88
2022-10-29T06:30:33.874Z,17.73
2022-10-29T06:31:04.864Z,17.25
2022-10-29T06:31:35.823Z,18.11
2022-10-29T06:32:07.046Z,18.60
2022-10-29T06:32:37.824Z,19.08
2022-10-29T06:33:08.785Z,19.08
2022-10-29T06:33:40.755Z,20.31
2022-10-29T06:34:10.847Z,20.31
2022-10-29T06:34:41.496Z,19.94
2022-10-29T06:35:12.704Z,21.16
2022-10-29T06:35:43.704Z,20.80
2022-10-29T06:36:14.875Z,21.65
2022-10-29T06:36:45.790Z,22.02
2022-10-29T06:37:16.731Z,21.65
2022-10-29T06:37:47.748Z,22.51
2022-10-29T06:38:18.793Z,22.51
2022-10-29T06:38:50.556Z,23.36
2022-10-29T06:39:20.771Z,23.85
2022-10-29T06:39:51.697Z,24.71
2022-10-29T06:40:22.858Z,24.22
2022-10-29T06:40:53.710Z,25.07
2022-10-29T06:41:24.969Z,25.56
2022-10-29T06:41:55.815Z,25.56
2022-10-29T06:42:26.537Z,26.79
2022-10-29T06:42:57.975Z,26.79
2022-10-29T06:43:28.756Z,27.28
2022-10-29T06:44:00.704Z,27.28
2022-10-29T06:44:30.788Z,28.63
2022-10-29T06:45:04.484Z,28.99
2022-10-29T06:45:32.754Z,29.85
2022-10-29T06:46:03.935Z,30.34
2022-10-29T06:46:34.820Z,30.70
2022-10-29T06:47:05.545Z,31.56
2022-10-29T06:47:36.869Z,32.42
2022-10-29T06:48:07.785Z,32.42
2022-10-29T06:48:38.713Z,33.76
2022-10-29T06:49:10.840Z,32.90
2022-10-29T06:49:40.734Z,33.76
2022-10-29T06:50:11.652Z,34.25
2022-10-29T06:50:42.895Z,35.11
2022-10-29T06:51:13.801Z,35.48
2022-10-29T06:51:44.758Z,35.48
2022-10-29T06:52:15.809Z,36.33
2022-10-29T06:52:46.854Z,36.82
2022-10-29T06:53:17.780Z,37.19
2022-10-29T06:53:48.944Z,38.53
2022-10-29T06:54:20.712Z,38.53
2022-10-29T06:54:50.595Z,39.39
2022-10-29T06:55:21.953Z,39.02
2022-10-29T06:55:52.832Z,39.39
2022-10-29T06:56:23.593Z,39.39
2022-10-29T06:56:54.872Z,39.39
2022-10-29T06:57:25.724Z,40.73
2022-10-29T06:57:56.663Z,40.24
2022-10-29T06:58:27.829Z,40.73
2022-10-29T06:58:58.757Z,41.10
2022-10-29T06:59:30.659Z,41.10
2022-10-29T07:00:07.428Z,41.96
2022-10-29T07:00:31.965Z,41.96
2022-10-29T07:01:02.594Z,41.96
2022-10-29T07:01:33.562Z,42.45
2022-10-29T07:02:05.283Z,43.31
2022-10-29T07:02:35.628Z,43.80
2022-10-29T07:03:07.018Z,43.80
2022-10-29T07:03:37.840Z,44.65
2022-10-29T07:04:08.839Z,44.65
2022-10-29T07:04:40.785Z,45.02
2022-10-29T07:05:10.848Z,45.87
2022-10-29T07:05:41.561Z,46.36
2022-10-29T07:06:12.797Z,46.73
2022-10-29T07:06:43.701Z,46.36
2022-10-29T07:07:15.082Z,47.22
2022-10-29T07:07:45.600Z,47.22
2022-10-29T07:08:16.759Z,48.56
2022-10-29T07:08:47.823Z,48.07
2022-10-29T07:09:18.946Z,48.93
2022-10-29T07:09:50.732Z,48.93
2022-10-29T07:10:20.817Z,50.28
2022-10-29T07:10:51.935Z,50.28
2022-10-29T07:11:22.782Z,50.28
2022-10-29T07:11:53.663Z,50.65
2022-10-29T07:12:24.391Z,50.65
2022-10-29T07:12:55.776Z,51.50
2022-10-29T07:13:26.636Z,51.50
2022-10-29T07:13:57.775Z,51.50
2022-10-29T07:14:28.839Z,52.48